Latest Coastal Weather Observations for Roebourne Airport

IDW60701

Issued at 6:13 pm WST Sunday 4 December 2016 (issued every 10 minutes, with the page automatically refreshed every 10 minutes)

About coastal observations | Map of coastal stations | Coastal observations for WA | Marine services | Other Formats
Station Details ID: 004090 Name: ROEBOURNE AERO Lat: -20.76 Lon: 117.16 Height: 10.7 m
Data from the previous 72 hours. | See also: Recent months at Roebourne Airport
Date/Time
WST
Temp
°C
Wind Pressure Rain since
9am
mm
Weather Cloud Vis
km
Sea
Height
m
Swell
Dir  Spd
kts
Gust
kts
hPa Trend Height
m
Period
s
Dir
04/06:00pm 28.5 WNW 15 21 1007.2 - 0.0 - - - - - - -
04/05:30pm 29.1 NW 17 20 1006.9 - 0.0 - - - - - - -
04/05:00pm 29.8 WNW 17 21 1006.5 - 0.0 - - - - - - -
04/04:30pm 31.1 NW 17 22 1006.5 - 0.0 - - - - - - -
04/04:00pm 30.8 NW 16 24 1006.5 - 0.0 - - - - - - -
04/03:30pm 31.0 NW 15 20 1006.6 - 0.0 - - - - - - -
04/03:00pm 32.1 NW 15 20 1006.8 - 0.0 - - - - - - -
04/02:30pm 32.3 NW 15 21 1007.0 - 0.0 - - - - - - -
04/02:00pm 33.7 NW 15 19 1007.0 - 0.0 - - - - - - -
04/01:30pm 33.1 NW 13 18 1007.1 - 0.0 - - - - - - -
04/01:00pm 33.4 NW 13 17 1007.4 - 0.0 - - - - - - -
04/12:30pm 34.0 NNW 11 16 1007.4 - 0.0 - - - - - - -
04/12:00pm 35.2 WNW 9 22 1007.6 - 0.0 - - - - - - -
04/11:30am 34.5 NW 11 15 1007.6 - 0.0 - - - - - - -
04/11:00am 33.5 NW 9 13 1007.9 - 0.0 - - - - - - -
04/10:30am 33.0 WNW 8 13 1008.2 - 0.0 - - - - - - -
04/10:00am 32.3 W 8 14 1008.3 - 0.0 - - - - - - -
04/09:30am 32.0 W 8 13 1008.3 - 0.0 - - - - - - -
04/09:00am 30.6 W 8 10 1008.5 - 0.0 - - - - - - -
04/08:30am 29.9 W 10 14 1008.5 - 0.0 - - - - - - -
04/08:00am 28.9 W 10 13 1008.6 - 0.0 - - - - - - -
04/07:30am 27.2 W 11 16 1008.5 - 0.0 - - - - - - -
04/07:00am 26.7 W 12 15 1008.3 - 0.0 - - - - - - -
04/06:30am 25.7 W 11 16 1008.2 - 0.0 - - - - - - -
04/06:00am 24.6 W 11 14 1007.9 - 0.0 - - - - - - -
04/05:30am 24.4 W 9 11 1008.0 - 0.0 - - - - - - -
04/05:00am 24.5 W 7 9 1007.8 - 0.0 - - - - - - -
04/04:30am 24.4 NW 6 8 1008.0 - 0.0 - - - - - - -
04/04:00am 24.7 WNW 8 10 1007.9 - 0.0 - - - - - - -
04/03:30am 24.6 W 7 10 1007.6 - 0.0 - - - - - - -
04/03:00am 24.5 W 8 11 1007.5 - 0.0 - - - - - - -
04/02:30am 24.6 W 9 12 1007.2 - 0.0 - - - - - - -
04/02:00am 25.1 W 10 12 1007.3 - 0.0 - - - - - - -
04/01:30am 25.3 W 10 14 1007.5 - 0.0 - - - - - - -
04/01:00am 25.4 WSW 10 15 1007.6 - 0.0 - - - - - - -
04/12:30am 25.8 W 13 16 1007.9 - 0.0 - - - - - - -
04/12:00am 25.8 W 12 16 1008.4 - 0.0 - - - - - - -
 
Date/Time
WST
Temp
°C
Wind Pressure Rain since
9am
mm
Weather Cloud Vis
km
Sea
Height
m
Swell
Dir  Spd
kts
Gust
kts
hPa Trend Height
m
Period
s
Dir
03/11:30pm 26.0 W 10 13 1009.0 - 0.0 - - - - - - -
03/11:00pm 26.2 W 11 13 1009.1 - 0.0 - - - - - - -
03/10:30pm 26.4 W 11 14 1009.2 - 0.0 - - - - - - -
03/10:00pm 26.5 W 12 15 1009.0 - 0.0 - - - - - - -
03/09:30pm 26.6 W 11 15 1008.6 - 0.0 - - - - - - -
03/09:00pm 26.7 W 11 15 1008.4 - 0.0 - - - - - - -
03/08:30pm 26.8 WNW 9 12 1008.2 - 0.0 - - - - - - -
03/08:00pm 27.1 WNW 11 15 1008.0 - 0.0 - - - - - - -
03/07:30pm 27.5 WNW 14 18 1007.5 - 0.0 - - - - - - -
03/07:00pm 28.0 WNW 14 18 1007.2 - 0.0 - - - - - - -
03/06:30pm 29.0 WNW 17 19 1006.8 - 0.0 - - - - - - -
03/06:00pm 30.1 WNW 16 20 1006.6 - 0.0 - - - - - - -
03/05:30pm 31.3 WNW 19 23 1006.1 - 0.0 - - - - - - -
03/05:00pm 32.3 WNW 17 21 1005.8 - 0.0 - - - - - - -
03/04:30pm 32.8 NW 18 22 1005.8 - 0.0 - - - - - - -
03/04:00pm 33.8 NW 17 23 1005.7 - 0.0 - - - - - - -
03/03:30pm 34.8 NW 17 22 1005.7 - 0.0 - - - - - - -
03/03:00pm 35.6 WNW 16 19 1005.8 - 0.0 - - - - - - -
03/02:30pm 35.0 NW 18 22 1006.2 - 0.0 - - - - - - -
03/02:00pm 35.5 NW 18 23 1006.1 - 0.0 - - - - - - -
03/01:30pm 35.9 NW 17 23 1006.3 - 0.0 - - - - - - -
03/01:00pm 36.5 NW 17 24 1006.5 - 0.0 - - - - - - -
03/12:30pm 37.7 NW 15 22 1006.4 - 0.0 - - - - - - -
03/12:00pm 37.4 NW 11 19 1006.6 - 0.0 - - - - - - -
03/11:30am 36.2 WNW 11 17 1006.7 - 0.0 - - - - - - -
03/11:00am 35.7 W 11 15 1007.0 - 0.0 - - - - - - -
03/10:30am 36.4 WSW 8 14 1007.4 - 0.0 - - - - - - -
03/10:00am 34.3 WSW 7 12 1007.6 - 0.0 - - - - - - -
03/09:30am 33.1 SW 9 13 1007.8 - 0.0 - - - - - - -
03/09:00am 31.9 WSW 9 14 1007.6 - 0.0 - - - - - - -
03/08:30am 30.7 W 11 14 1007.4 - 0.0 - - - - - - -
03/08:00am 29.5 W 13 17 1007.2 - 0.0 - - - - - - -
03/07:30am 28.6 W 14 19 1006.9 - 0.0 - - - - - - -
03/07:00am 26.8 W 14 18 1006.6 - 0.0 - - - - - - -
03/06:30am 25.9 WSW 11 14 1006.7 - 0.0 - - - - - - -
03/06:00am 25.1 W 11 15 1006.5 - 0.0 - - - - - - -
03/05:30am 24.7 W 10 13 1006.3 - 0.0 - - - - - - -
03/05:00am 24.5 WSW 13 16 1005.9 - 0.0 - - - - - - -
03/04:30am 24.6 W 14 20 1006.0 - 0.0 - - - - - - -
03/04:00am 24.7 WNW 14 18 1006.1 - 0.0 - - - - - - -
03/03:30am 24.9 WNW 10 13 1006.1 - 0.0 - - - - - - -
03/03:00am 25.1 W 10 12 1006.2 - 0.0 - - - - - - -
03/02:30am 25.3 W 10 13 1006.0 - 0.0 - - - - - - -
03/02:00am 25.7 W 12 16 1006.0 - 0.0 - - - - - - -
03/01:30am 25.8 WSW 11 15 1006.1 - 0.0 - - - - - - -
03/01:00am 25.8 W 12 16 1006.1 - 0.0 - - - - - - -
03/12:30am 26.0 W 14 19 1006.2 - 0.0 - - - - - - -
03/12:00am 26.2 W 12 15 1006.5 - 0.0 - - - - - - -
 
Date/Time
WST
Temp
°C
Wind Pressure Rain since
9am
mm
Weather Cloud Vis
km
Sea
Height
m
Swell
Dir  Spd
kts
Gust
kts
hPa Trend Height
m
Period
s
Dir
02/11:30pm 26.4 W 13 16 1006.8 - 0.0 - - - - - - -
02/11:00pm 26.6 W 11 14 1006.7 - 0.0 - - - - - - -
02/10:30pm 26.9 W 11 16 1006.8 - 0.0 - - - - - - -
02/10:00pm 27.0 W 12 15 1006.6 - 0.0 - - - - - - -
02/09:30pm 27.3 W 14 19 1006.4 - 0.0 - - - - - - -
02/09:00pm 27.6 W 13 18 1006.1 - 0.0 - - - - - - -
02/08:30pm 28.1 W 15 19 1005.9 - 0.0 - - - - - - -
02/08:00pm 28.2 W 17 21 1005.5 - 0.0 - - - - - - -
02/07:30pm 28.8 WNW 18 25 1005.3 - 0.0 - - - - - - -
02/07:00pm 29.5 WNW 19 26 1004.9 - 0.0 - - - - - - -
02/06:30pm 30.3 WNW 19 25 1004.7 - 0.0 - - - - - - -
02/06:00pm 32.0 WNW 19 24 1004.1 - 0.0 - - - - - - -
02/05:30pm 33.3 WNW 20 25 1003.9 - 0.0 - - - - - - -
02/05:00pm 34.1 WNW 21 26 1003.8 - 0.0 - - - - - - -
02/04:30pm 35.0 WNW 19 24 1003.8 - 0.0 - - - - - - -
02/04:00pm 35.7 WNW 22 27 1003.7 - 0.0 - - - - - - -
02/03:30pm 36.0 WNW 20 25 1003.9 - 0.0 - - - - - - -
02/03:00pm 37.4 WNW 19 24 1004.2 - 0.0 - - - - - - -
02/02:30pm 37.1 NW 19 26 1004.4 - 0.0 - - - - - - -
02/02:00pm 37.8 NW 20 23 1004.7 - 0.0 - - - - - - -
02/01:30pm 37.8 NW 19 23 1004.9 - 0.0 - - - - - - -
02/01:00pm 37.9 NW 19 22 1005.1 - 0.0 - - - - - - -
02/12:30pm 38.6 NW 16 20 1005.3 - 0.0 - - - - - - -
02/12:00pm 38.5 NW 16 20 1005.3 - 0.0 - - - - - - -
02/11:30am 37.7 NW 15 20 1005.5 - 0.0 - - - - - - -
02/11:00am 37.8 WNW 12 16 1005.7 - 0.0 - - - - - - -
02/10:30am 37.7 WNW 12 16 1006.0 - 0.0 - - - - - - -
02/10:00am 36.6 W 11 17 1006.0 - 0.0 - - - - - - -
02/09:30am 35.5 W 12 16 1006.2 - 0.0 - - - - - - -
02/09:00am 34.0 W 11 14 1006.4 - 0.0 - - - - - - -
02/08:30am 32.2 W 11 14 1006.6 - 0.0 - - - - - - -
02/08:00am 30.7 W 11 14 1006.5 - 0.0 - - - - - - -
02/07:30am 29.0 W 10 12 1006.6 - 0.0 - - - - - - -
02/07:00am 27.6 W 11 13 1006.3 - 0.0 - - - - - - -
02/06:30am 26.4 W 11 14 1006.3 - 0.0 - - - - - - -
02/06:00am 25.2 WNW 10 14 1006.1 - 0.0 - - - - - - -
02/05:30am 24.8 W 8 10 1005.8 - 0.0 - - - - - - -
02/05:00am 25.4 WNW 9 11 1005.6 - 0.0 - - - - - - -
02/04:30am 26.0 W 8 11 1005.4 - 0.0 - - - - - - -
02/04:00am 26.2 WNW 8 10 1005.1 - 0.0 - - - - - - -
02/03:30am 27.1 W 9 12 1005.0 - 0.0 - - - - - - -
02/03:00am 27.6 W 11 16 1005.0 - 0.0 - - - - - - -
02/02:30am 27.6 W 10 13 1005.1 - 0.0 - - - - - - -
02/02:00am 27.6 WSW 9 13 1005.0 - 0.0 - - - - - - -
02/01:30am 27.8 WSW 13 18 1005.1 - 0.0 - - - - - - -
02/01:00am 28.1 W 12 15 1005.1 - 0.0 - - - - - - -
02/12:30am 28.5 WSW 15 20 1005.2 - 0.0 - - - - - - -
02/12:00am 28.5 WSW 14 19 1005.5 - 0.0 - - - - - - -
 
Date/Time
WST
Temp
°C
Wind Pressure Rain since
9am
mm
Weather Cloud Vis
km
Sea
Height
m
Swell
Dir  Spd
kts
Gust
kts
hPa Trend Height
m
Period
s
Dir
01/11:30pm 28.8 W 14 17 1005.8 - 0.0 - - - - - - -
01/11:00pm 28.7 W 13 17 1005.7 - 0.0 - - - - - - -
01/10:30pm 29.2 W 15 19 1005.8 - 0.0 - - - - - - -
01/10:00pm 29.6 W 15 20 1005.8 - 0.0 - - - - - - -
01/09:30pm 30.1 W 15 21 1005.6 - 0.0 - - - - - - -
01/09:00pm 30.9 W 15 22 1005.3 - 0.0 - - - - - - -
01/08:30pm 30.9 W 15 20 1005.0 - 0.0 - - - - - - -
01/08:00pm 31.2 W 16 20 1004.9 - 0.0 - - - - - - -
01/07:30pm 32.0 W 16 21 1004.4 - 0.0 - - - - - - -
01/07:00pm 32.9 W 17 23 1003.9 - 0.0 - - - - - - -
01/06:30pm 33.9 W 17 21 1003.5 - 0.0 - - - - - - -

Other Formats:

Comma delimited format used in spreadsheet applications
http://www.bom.gov.au/fwo/IDW60701/IDW60701.94308.axf

JavaScript Object Notation format (JSON) in row-major order
http://www.bom.gov.au/fwo/IDW60701/IDW60701.94308.json